Accueil
METAR-TAF:

METAR-TAF

Aéroports :

Bordeaux, France

Aéroport de Bordeaux - Mérignac

latitude: 44-50N, longitude: 000-42W, altitude: 49 m

Observation

Le bulletin a été fait il y a 26 minutes, à 11:30 UTC
Vent 2 kt de direction variable
Température 26°C
Humidité 51%
Pression 1018 hPa
Visibilité 10 km ou plus
pas de nuages en-dessous de 1500 mètres et pas de cumulonimbus.

METAR: LFBD 231130Z AUTO VRB02KT CAVOK 26/15 Q1018 NOSIG

Heure: 13:56 (11:56 UTC)

Prévision

Le bulletin a été fait il y a 56 minutes, à 11:00 UTC
Prévision valable du 23 à 12 UTC au 24 à 18 UTC
Vent 5 kt de nord/nord-ouest
Visibilité 10 km ou plus
pas de nuages en-dessous de 1500 mètres et pas de cumulonimbus.
Probabilité 30% :
Temporairement
du 23 à 21 UTC au 23 à 24 UTC
Quelques nuages à une hauteur de 8000 ft, Cumulonimbus.

TAF: LFBD 231100Z 2312/2418 33005KT CAVOK PROB30 TEMPO 2321/2324 FEW080CB TX35/2416Z TN17/2405Z

Observations et prévisions météorologiques de plus de 4000 aéroports (messages METAR et TAF).

Les stations disponibles sont représentées par des disques jaunes et rouges sur la carte.

Passer la souris dessus pour voir le nom de la station.

Cliquer dessus pour voir les observations et prévisions météorologiques.

Pour changer de carte: cliquez sur les boutons verts avec une croix noire pour zoomer, sur le bouton vert avec un tiret pour effectuer un zoom arrière, ou sur les flèches vertes pour les cartes adjacentes.


METAR-TAF: